createdAt,value
2023-01-30T00:00:23.174Z,95.81
2023-01-30T00:01:23.165Z,95.81
2023-01-30T00:02:23.184Z,95.92
2023-01-30T00:03:23.134Z,95.92
2023-01-30T00:04:23.121Z,95.92
2023-01-30T00:05:23.161Z,95.98
2023-01-30T00:06:23.130Z,95.98
2023-01-30T00:07:23.088Z,95.87
2023-01-30T00:08:23.077Z,95.98
2023-01-30T00:09:23.096Z,95.87
2023-01-30T00:10:25.790Z,95.98
2023-01-30T00:11:23.063Z,95.87
2023-01-30T00:12:23.029Z,95.87
2023-01-30T00:13:23.027Z,95.98
2023-01-30T00:14:23.013Z,95.98
2023-01-30T00:15:23.001Z,96.08
2023-01-30T00:16:23.086Z,96.08
2023-01-30T00:17:22.979Z,96.19
2023-01-30T00:18:22.972Z,96.19
2023-01-30T00:19:22.957Z,96.29
2023-01-30T00:20:22.948Z,96.29
2023-01-30T00:21:22.944Z,96.39
2023-01-30T00:22:22.923Z,96.39
2023-01-30T00:23:22.922Z,96.39
2023-01-30T00:24:22.978Z,96.39
2023-01-30T00:25:23.004Z,96.39
2023-01-30T00:26:22.915Z,96.39
2023-01-30T00:27:22.868Z,96.39
2023-01-30T00:28:22.854Z,96.39
2023-01-30T00:29:22.854Z,96.50
2023-01-30T00:30:22.889Z,96.50
2023-01-30T00:31:22.897Z,96.60
2023-01-30T00:32:22.821Z,96.60
2023-01-30T00:33:22.804Z,96.60
2023-01-30T00:34:22.789Z,96.60
2023-01-30T00:35:22.784Z,96.60
2023-01-30T00:36:22.781Z,96.60
2023-01-30T00:37:22.763Z,96.60
2023-01-30T00:38:22.748Z,96.60
2023-01-30T00:39:22.738Z,96.70
2023-01-30T00:40:22.727Z,96.70
2023-01-30T00:41:22.757Z,96.70
2023-01-30T00:42:22.707Z,96.70
2023-01-30T00:43:22.699Z,96.70
2023-01-30T00:44:22.678Z,96.70
2023-01-30T00:45:22.674Z,96.70
2023-01-30T00:46:22.668Z,96.70
2023-01-30T00:47:22.650Z,96.81
2023-01-30T00:48:22.640Z,96.81
2023-01-30T00:49:22.632Z,96.81
2023-01-30T00:50:22.615Z,96.91
2023-01-30T00:51:22.619Z,96.91
2023-01-30T00:52:22.599Z,96.91
2023-01-30T00:53:22.581Z,97.02
2023-01-30T00:54:22.575Z,96.97
2023-01-30T00:55:22.565Z,96.97
2023-01-30T00:56:22.577Z,97.07
2023-01-30T00:57:22.543Z,97.07
2023-01-30T00:58:22.548Z,97.17
2023-01-30T00:59:22.521Z,97.38
2023-01-30T01:00:22.508Z,97.59
2023-01-30T01:01:22.543Z,97.80
2023-01-30T01:02:22.507Z,97.80
2023-01-30T01:03:22.521Z,97.90
2023-01-30T01:04:22.464Z,98.00
2023-01-30T01:05:22.458Z,98.11
2023-01-30T01:06:22.448Z,98.21
2023-01-30T01:07:22.433Z,98.32
2023-01-30T01:08:22.418Z,98.32
2023-01-30T01:09:22.408Z,98.42
2023-01-30T01:10:22.397Z,98.42
2023-01-30T01:11:22.404Z,98.52
2023-01-30T01:12:22.373Z,98.63
2023-01-30T01:13:22.369Z,98.73
2023-01-30T01:14:22.351Z,98.83
2023-01-30T01:15:22.348Z,98.94
2023-01-30T01:16:22.360Z,98.94
2023-01-30T01:17:22.334Z,99.04
2023-01-30T01:18:22.313Z,99.04
2023-01-30T01:19:22.300Z,99.04
2023-01-30T01:20:22.283Z,99.04
2023-01-30T01:21:22.286Z,99.04
2023-01-30T01:22:22.269Z,99.04
2023-01-30T01:23:22.265Z,99.04
2023-01-30T01:24:22.239Z,99.15
2023-01-30T01:25:22.251Z,99.04
2023-01-30T01:26:22.287Z,99.04
2023-01-30T01:27:22.220Z,99.04
2023-01-30T01:28:22.197Z,99.04
2023-01-30T01:29:22.193Z,99.15
2023-01-30T01:30:22.172Z,99.15
2023-01-30T01:31:22.249Z,99.15
2023-01-30T01:32:22.159Z,99.15
2023-01-30T01:33:22.149Z,99.15
2023-01-30T01:34:22.134Z,99.10
2023-01-30T01:35:22.124Z,99.10
2023-01-30T01:36:51.555Z,99.10
2023-01-30T01:37:22.115Z,99.10
2023-01-30T01:38:22.085Z,99.10
2023-01-30T01:39:22.083Z,99.21
2023-01-30T01:40:22.067Z,99.21
2023-01-30T01:41:22.051Z,99.31
2023-01-30T01:42:22.055Z,99.31
2023-01-30T01:43:22.033Z,99.52
2023-01-30T01:44:22.024Z,99.52
2023-01-30T01:45:22.007Z,99.62
2023-01-30T01:46:22.000Z,99.62
2023-01-30T01:47:21.996Z,99.62
2023-01-30T01:48:21.977Z,99.72
2023-01-30T01:49:21.960Z,99.72
2023-01-30T01:50:21.957Z,99.82
2023-01-30T01:51:21.938Z,99.82
2023-01-30T01:52:21.956Z,99.82
2023-01-30T01:53:21.922Z,99.82
2023-01-30T01:54:21.918Z,99.82
2023-01-30T01:55:21.904Z,99.82
2023-01-30T01:56:21.889Z,99.82
2023-01-30T01:57:21.886Z,99.93
2023-01-30T01:58:21.870Z,99.93
2023-01-30T01:59:21.857Z,99.93
2023-01-30T02:00:21.843Z,99.99
2023-01-30T02:01:21.852Z,99.99
2023-01-30T02:02:21.855Z,99.99
2023-01-30T02:03:21.809Z,99.99
2023-01-30T02:04:21.801Z,99.99
2023-01-30T02:05:21.788Z,99.99
2023-01-30T02:06:21.772Z,99.99
2023-01-30T02:07:21.791Z,99.99
2023-01-30T02:08:21.756Z,99.99
2023-01-30T02:09:21.747Z,99.99
2023-01-30T02:10:21.736Z,99.99
2023-01-30T02:11:21.745Z,99.99
2023-01-30T02:12:21.723Z,99.99
2023-01-30T02:13:21.706Z,99.99
2023-01-30T02:14:21.687Z,99.99
2023-01-30T02:15:21.679Z,99.99
2023-01-30T02:16:21.674Z,99.99
2023-01-30T02:17:21.702Z,99.99
2023-01-30T02:18:21.651Z,99.99
2023-01-30T02:19:21.652Z,99.99
2023-01-30T02:20:21.621Z,99.99
2023-01-30T02:21:21.613Z,99.99
2023-01-30T02:22:21.614Z,99.99
2023-01-30T02:23:21.592Z,99.99
2023-01-30T02:24:21.583Z,99.99
2023-01-30T02:25:21.567Z,99.99
2023-01-30T02:26:21.578Z,99.99
2023-01-30T02:31:01.239Z,99.99
2023-01-30T02:31:53.645Z,99.99
2023-01-30T02:32:53.564Z,99.99
2023-01-30T02:33:53.559Z,99.99
2023-01-30T02:34:53.542Z,99.99
2023-01-30T02:35:53.531Z,99.99
2023-01-30T02:36:53.529Z,99.99
2023-01-30T02:37:53.512Z,99.99
2023-01-30T02:38:53.494Z,99.99
2023-01-30T02:39:53.488Z,99.99
2023-01-30T02:40:53.474Z,99.99
2023-01-30T02:41:53.475Z,99.99
2023-01-30T02:42:53.454Z,99.99
2023-01-30T02:43:53.444Z,99.99
2023-01-30T02:44:53.430Z,99.99
2023-01-30T02:45:53.450Z,99.99
2023-01-30T02:46:53.415Z,99.99
2023-01-30T02:47:53.423Z,99.99
2023-01-30T02:48:53.388Z,99.99
2023-01-30T02:49:53.406Z,99.99
2023-01-30T02:50:53.383Z,99.99
2023-01-30T02:51:53.389Z,99.99
2023-01-30T02:52:53.342Z,99.99
2023-01-30T02:53:53.340Z,99.99
2023-01-30T02:54:53.319Z,99.99
2023-01-30T02:55:53.314Z,99.99
2023-01-30T02:56:53.330Z,99.99
2023-01-30T02:57:53.288Z,99.99
2023-01-30T02:58:53.283Z,99.99
2023-01-30T02:59:53.274Z,99.99
2023-01-30T03:00:53.254Z,99.99
2023-01-30T03:01:53.267Z,99.99
2023-01-30T03:02:53.261Z,99.99
2023-01-30T03:03:53.226Z,99.99
2023-01-30T03:04:53.213Z,99.99
2023-01-30T03:05:53.206Z,99.99
2023-01-30T03:06:53.199Z,99.99
2023-01-30T03:07:53.185Z,99.99
2023-01-30T03:08:53.165Z,99.99
2023-01-30T03:09:53.167Z,99.99
2023-01-30T03:10:53.147Z,99.99
2023-01-30T03:11:53.151Z,99.99
2023-01-30T03:12:53.130Z,99.99
2023-01-30T03:13:53.116Z,99.99
2023-01-30T03:14:53.102Z,99.99
2023-01-30T03:15:53.211Z,99.99
2023-01-30T03:16:53.101Z,99.99
2023-01-30T03:17:53.686Z,99.99
2023-01-30T03:18:53.066Z,99.99
2023-01-30T03:19:53.057Z,99.99
2023-01-30T03:20:53.032Z,99.99
2023-01-30T03:21:53.026Z,99.99
2023-01-30T03:22:53.025Z,99.99
2023-01-30T03:23:53.021Z,99.99
2023-01-30T03:24:53.001Z,99.99
2023-01-30T03:25:52.981Z,99.99
2023-01-30T03:26:52.974Z,99.99
2023-01-30T03:27:52.976Z,99.99
2023-01-30T03:28:52.958Z,99.99
2023-01-30T03:29:52.940Z,99.99
2023-01-30T03:30:53.004Z,99.99
2023-01-30T03:31:52.988Z,99.99
2023-01-30T03:32:52.910Z,99.99
2023-01-30T03:33:52.897Z,99.99
2023-01-30T03:34:52.882Z,99.99
2023-01-30T03:35:52.881Z,99.99
2023-01-30T03:36:52.857Z,99.99
2023-01-30T03:37:52.880Z,99.99
2023-01-30T03:38:52.880Z,99.99
2023-01-30T03:39:52.830Z,99.99
2023-01-30T03:40:52.814Z,99.99
2023-01-30T03:41:52.808Z,99.99
2023-01-30T03:42:52.802Z,99.99
2023-01-30T03:43:52.789Z,99.99
2023-01-30T03:44:52.767Z,99.99
2023-01-30T03:45:52.786Z,99.99
2023-01-30T03:46:52.758Z,99.99
2023-01-30T03:47:52.754Z,99.99
2023-01-30T03:48:52.725Z,99.99
2023-01-30T03:49:52.723Z,99.99
2023-01-30T03:50:52.702Z,99.99
2023-01-30T03:51:52.698Z,99.99
2023-01-30T03:52:52.691Z,99.99
2023-01-30T03:53:52.680Z,99.99
2023-01-30T03:54:52.684Z,99.99
2023-01-30T03:55:52.651Z,99.99
2023-01-30T03:56:52.640Z,99.99
2023-01-30T03:57:52.638Z,99.99
2023-01-30T03:58:52.620Z,99.99
2023-01-30T03:59:52.609Z,99.99
2023-01-30T04:00:52.630Z,99.99
2023-01-30T04:01:52.585Z,99.99
2023-01-30T04:02:52.583Z,99.99
2023-01-30T04:03:52.564Z,99.99
2023-01-30T04:04:52.549Z,99.99
2023-01-30T04:05:52.544Z,99.99
2023-01-30T04:06:52.526Z,99.99
2023-01-30T04:07:52.530Z,99.99
2023-01-30T04:08:52.507Z,99.99
2023-01-30T04:09:52.506Z,99.99
2023-01-30T04:10:52.483Z,99.99
2023-01-30T04:11:52.480Z,99.99
2023-01-30T04:12:52.474Z,99.99
2023-01-30T04:13:52.458Z,99.99
2023-01-30T04:14:52.444Z,99.99
2023-01-30T04:15:52.461Z,99.99
2023-01-30T04:16:52.452Z,99.99
2023-01-30T04:17:52.430Z,99.99
2023-01-30T04:18:52.411Z,99.99
2023-01-30T04:19:52.395Z,99.99
2023-01-30T04:20:52.382Z,99.99
2023-01-30T04:21:52.390Z,99.99
2023-01-30T04:22:52.362Z,99.99
2023-01-30T04:23:52.346Z,99.99
2023-01-30T04:24:52.331Z,99.99
2023-01-30T04:25:52.324Z,99.99
2023-01-30T04:26:52.310Z,99.99
2023-01-30T04:27:52.325Z,99.99
2023-01-30T04:28:52.285Z,99.99
2023-01-30T04:29:52.291Z,99.99
2023-01-30T04:30:52.307Z,99.99
2023-01-30T04:31:52.259Z,99.99
2023-01-30T04:32:52.260Z,99.99
2023-01-30T04:33:52.280Z,99.99
2023-01-30T04:34:52.221Z,99.99
2023-01-30T04:35:52.222Z,99.99
2023-01-30T04:36:52.216Z,99.99
2023-01-30T04:37:52.192Z,99.99
2023-01-30T04:38:52.187Z,99.99
2023-01-30T04:39:52.177Z,99.99
2023-01-30T04:40:52.156Z,99.99
2023-01-30T04:41:52.174Z,99.99
2023-01-30T04:42:52.145Z,99.99
2023-01-30T04:43:54.679Z,99.99
2023-01-30T04:44:52.117Z,99.99
2023-01-30T04:45:52.105Z,99.99
2023-01-30T04:46:52.128Z,99.99
2023-01-30T04:47:52.295Z,99.99
2023-01-30T04:48:52.096Z,99.99
2023-01-30T04:49:52.063Z,99.99
2023-01-30T04:50:52.051Z,99.99
2023-01-30T04:51:52.036Z,99.99
2023-01-30T04:52:52.071Z,99.99
2023-01-30T04:53:52.022Z,99.99
2023-01-30T04:54:52.008Z,99.99
2023-01-30T04:55:51.995Z,99.99
2023-01-30T04:56:51.991Z,99.99
2023-01-30T04:57:51.972Z,99.99
2023-01-30T04:58:51.983Z,99.99
2023-01-30T04:59:51.948Z,99.99
2023-01-30T05:00:51.971Z,99.99
2023-01-30T05:01:51.955Z,99.99
2023-01-30T05:02:51.928Z,99.99
2023-01-30T05:03:51.912Z,99.99
2023-01-30T05:04:51.899Z,99.99
2023-01-30T05:05:51.888Z,99.99
2023-01-30T05:06:51.876Z,99.99
2023-01-30T05:07:51.861Z,99.99
2023-01-30T05:08:51.866Z,99.99
2023-01-30T05:09:51.838Z,99.99
2023-01-30T05:10:51.831Z,99.99
2023-01-30T05:11:51.831Z,99.99
2023-01-30T05:12:51.809Z,99.99
2023-01-30T05:13:51.807Z,99.99
2023-01-30T05:14:51.786Z,99.99
2023-01-30T05:15:51.774Z,99.99
2023-01-30T05:16:51.790Z,99.99
2023-01-30T05:17:51.752Z,99.99
2023-01-30T05:18:51.755Z,99.99
2023-01-30T05:19:51.729Z,99.99
2023-01-30T05:20:51.723Z,99.99
2023-01-30T05:21:51.714Z,99.99
2023-01-30T05:22:51.701Z,99.99
2023-01-30T05:23:51.697Z,99.99
2023-01-30T05:24:51.683Z,99.99
2023-01-30T05:25:51.664Z,99.99
2023-01-30T05:26:51.658Z,99.99
2023-01-30T05:27:51.641Z,99.99
2023-01-30T05:28:51.648Z,99.99
2023-01-30T05:29:51.632Z,99.99
2023-01-30T05:30:51.645Z,99.99
2023-01-30T05:31:51.671Z,99.99
2023-01-30T05:32:51.585Z,99.99
2023-01-30T05:33:51.588Z,99.99
2023-01-30T05:34:51.564Z,99.99
2023-01-30T05:35:51.560Z,99.99
2023-01-30T05:36:51.545Z,99.99
2023-01-30T05:37:51.548Z,99.99
2023-01-30T05:38:51.534Z,99.99
2023-01-30T05:39:51.554Z,99.99
2023-01-30T05:40:51.500Z,99.99
2023-01-30T05:41:51.497Z,99.99
2023-01-30T05:42:51.478Z,99.99
2023-01-30T05:43:51.491Z,99.99
2023-01-30T05:44:51.463Z,99.99
2023-01-30T05:45:51.453Z,99.99
2023-01-30T05:46:51.504Z,99.99
2023-01-30T05:47:51.428Z,99.99
2023-01-30T05:48:51.420Z,99.99
2023-01-30T05:49:51.406Z,99.99
2023-01-30T05:50:51.393Z,99.99
2023-01-30T05:51:51.738Z,99.99
2023-01-30T05:52:51.365Z,99.99
2023-01-30T05:53:51.371Z,99.99
2023-01-30T05:54:51.349Z,99.99
2023-01-30T05:55:51.339Z,99.99
2023-01-30T05:56:51.339Z,99.99
2023-01-30T05:57:51.318Z,99.99
2023-01-30T05:58:51.311Z,99.99
2023-01-30T05:59:51.299Z,99.99
2023-01-30T06:00:51.281Z,99.99
2023-01-30T06:01:51.271Z,99.99
2023-01-30T06:02:51.274Z,99.99
2023-01-30T06:03:51.424Z,99.99
2023-01-30T06:04:51.233Z,99.99
2023-01-30T06:05:51.231Z,99.99
2023-01-30T06:06:51.214Z,99.99
2023-01-30T06:07:51.211Z,99.99
2023-01-30T06:08:51.191Z,99.99
2023-01-30T06:09:51.194Z,99.99
2023-01-30T06:10:51.170Z,99.99
2023-01-30T06:11:51.787Z,99.99
2023-01-30T06:12:51.152Z,99.99
2023-01-30T06:13:51.140Z,99.99
2023-01-30T06:14:51.135Z,99.99
2023-01-30T06:15:51.135Z,99.99
2023-01-30T06:16:51.170Z,99.99
2023-01-30T06:17:51.114Z,99.99
2023-01-30T06:18:51.086Z,99.99
2023-01-30T06:19:51.085Z,99.99
2023-01-30T06:20:51.062Z,99.99
2023-01-30T06:21:51.065Z,99.99
2023-01-30T06:22:51.042Z,99.99
2023-01-30T06:23:51.033Z,99.99
2023-01-30T06:24:51.027Z,99.99
2023-01-30T06:25:51.011Z,99.99
2023-01-30T06:26:51.033Z,99.99
2023-01-30T06:27:50.987Z,99.99
2023-01-30T06:28:50.972Z,99.99
2023-01-30T06:29:50.974Z,99.99
2023-01-30T06:30:51.054Z,99.99
2023-01-30T06:31:50.945Z,99.99
2023-01-30T06:32:50.933Z,99.99
2023-01-30T06:33:50.922Z,99.99
2023-01-30T06:34:50.918Z,99.99
2023-01-30T06:35:50.951Z,99.56
2023-01-30T06:36:50.918Z,98.53
2023-01-30T06:37:50.879Z,98.01
2023-01-30T06:38:50.868Z,97.71
2023-01-30T06:39:50.868Z,97.19
2023-01-30T06:40:50.847Z,96.98
2023-01-30T06:41:50.832Z,97.08
2023-01-30T06:42:50.829Z,97.29
2023-01-30T06:43:50.814Z,97.19
2023-01-30T06:44:50.830Z,96.98
2023-01-30T06:45:50.841Z,95.95
2023-01-30T06:46:50.777Z,95.43
2023-01-30T06:47:50.771Z,95.37
2023-01-30T06:48:50.756Z,95.78
2023-01-30T06:49:50.756Z,95.89
2023-01-30T06:50:50.731Z,96.20
2023-01-30T06:51:50.726Z,96.09
2023-01-30T06:52:50.723Z,95.89
2023-01-30T06:53:52.442Z,96.09
2023-01-30T06:54:50.700Z,96.20
2023-01-30T06:55:50.685Z,96.30
2023-01-30T06:56:50.669Z,96.34
2023-01-30T06:57:50.662Z,96.51
2023-01-30T06:58:50.644Z,96.55
2023-01-30T06:59:50.655Z,96.66
2023-01-30T07:00:50.624Z,96.45
2023-01-30T07:01:50.643Z,96.55
2023-01-30T07:02:50.602Z,96.97
2023-01-30T07:03:50.608Z,97.17
2023-01-30T07:04:50.589Z,97.28
2023-01-30T07:05:50.571Z,97.38
2023-01-30T07:06:50.560Z,97.38
2023-01-30T07:07:50.548Z,97.59
2023-01-30T07:08:50.542Z,97.69
2023-01-30T07:10:02.285Z,97.69
2023-01-30T07:10:50.536Z,97.89
2023-01-30T07:11:50.503Z,97.94
2023-01-30T07:12:50.491Z,98.05
2023-01-30T07:13:50.488Z,98.25
2023-01-30T07:14:50.476Z,98.35
2023-01-30T07:15:50.471Z,98.46
2023-01-30T07:16:50.585Z,98.46
2023-01-30T07:17:50.443Z,98.46
2023-01-30T07:18:50.446Z,98.15
2023-01-30T07:19:50.451Z,98.00
2023-01-30T07:20:50.456Z,97.79
2023-01-30T07:21:50.396Z,97.79
2023-01-30T07:22:50.401Z,97.79
2023-01-30T07:23:50.378Z,97.69
2023-01-30T07:24:51.242Z,97.69
2023-01-30T07:25:50.426Z,97.38
2023-01-30T07:26:50.338Z,97.38
2023-01-30T07:27:50.332Z,97.49
2023-01-30T07:28:50.318Z,97.49
2023-01-30T07:29:51.905Z,97.59
2023-01-30T07:30:50.339Z,97.17
2023-01-30T07:31:50.375Z,97.07
2023-01-30T07:32:50.285Z,97.17
2023-01-30T07:33:50.276Z,97.28
2023-01-30T07:34:50.273Z,97.17
2023-01-30T07:35:50.252Z,97.07
2023-01-30T07:36:50.228Z,97.07
2023-01-30T07:37:50.254Z,97.17
2023-01-30T07:38:50.214Z,97.17
2023-01-30T07:39:50.205Z,97.28
2023-01-30T07:40:50.226Z,97.28
2023-01-30T07:41:50.240Z,97.38
2023-01-30T07:42:50.167Z,97.49
2023-01-30T07:43:50.194Z,97.49
2023-01-30T07:44:50.144Z,97.59
2023-01-30T07:45:50.149Z,97.69
2023-01-30T07:46:50.184Z,97.69
2023-01-30T07:47:50.111Z,97.69
2023-01-30T07:48:50.113Z,97.69
2023-01-30T07:49:50.094Z,97.59
2023-01-30T07:50:50.089Z,97.38
2023-01-30T07:51:50.096Z,97.28
2023-01-30T07:52:50.078Z,97.17
2023-01-30T07:53:50.072Z,96.97
2023-01-30T07:54:50.048Z,96.82
2023-01-30T07:55:50.043Z,96.82
2023-01-30T07:56:50.021Z,96.82
2023-01-30T07:57:50.031Z,96.51
2023-01-30T07:58:49.987Z,96.36
2023-01-30T07:59:49.990Z,96.05
2023-01-30T08:00:50.050Z,95.74
2023-01-30T08:01:49.985Z,95.32
2023-01-30T08:02:49.978Z,94.92
2023-01-30T08:03:49.936Z,94.67
2023-01-30T08:04:49.953Z,94.15
2023-01-30T08:05:49.932Z,93.73
2023-01-30T08:06:49.908Z,93.53
2023-01-30T08:07:49.904Z,93.32
2023-01-30T08:08:49.881Z,92.91
2023-01-30T08:09:49.875Z,92.80
2023-01-30T08:10:49.867Z,92.60
2023-01-30T08:11:49.855Z,92.60
2023-01-30T08:12:49.835Z,92.19
2023-01-30T08:13:49.832Z,92.19
2023-01-30T08:14:49.856Z,92.40
2023-01-30T08:15:49.819Z,92.60
2023-01-30T08:16:49.854Z,93.22
2023-01-30T08:17:49.782Z,92.80
2023-01-30T08:18:49.769Z,91.98
2023-01-30T08:19:49.772Z,91.46
2023-01-30T08:20:49.765Z,91.36
2023-01-30T08:21:49.743Z,91.67
2023-01-30T08:22:49.747Z,91.56
2023-01-30T08:23:49.732Z,91.36
2023-01-30T08:24:49.704Z,91.16
2023-01-30T08:25:49.718Z,90.64
2023-01-30T08:26:49.755Z,90.39
2023-01-30T08:27:49.676Z,90.59
2023-01-30T08:28:49.661Z,90.49
2023-01-30T08:29:49.688Z,90.19
2023-01-30T08:30:49.782Z,90.19
2023-01-30T08:31:49.650Z,89.87
2023-01-30T08:32:49.622Z,89.77
2023-01-30T08:33:49.609Z,89.56
2023-01-30T08:34:49.608Z,90.19
2023-01-30T08:35:49.616Z,89.77
2023-01-30T08:36:49.585Z,89.36
2023-01-30T08:37:49.573Z,89.05
2023-01-30T08:38:49.557Z,88.53
2023-01-30T08:39:49.542Z,87.81
2023-01-30T08:40:49.544Z,88.53
2023-01-30T08:41:49.534Z,88.53
2023-01-30T08:42:49.518Z,88.64
2023-01-30T08:43:49.504Z,88.74
2023-01-30T08:44:49.497Z,89.05
2023-01-30T08:45:49.488Z,89.25
2023-01-30T08:46:49.524Z,89.46
2023-01-30T08:47:49.467Z,89.67
2023-01-30T08:48:50.459Z,89.25
2023-01-30T08:49:49.458Z,89.46
2023-01-30T08:50:49.455Z,89.56
2023-01-30T08:51:49.461Z,89.32
2023-01-30T08:52:49.417Z,89.52
2023-01-30T08:53:49.398Z,89.22
2023-01-30T08:54:49.397Z,89.11
2023-01-30T08:55:49.368Z,88.49
2023-01-30T08:56:49.392Z,88.18
2023-01-30T08:57:49.349Z,88.39
2023-01-30T08:58:49.353Z,88.39
2023-01-30T08:59:49.327Z,88.80
2023-01-30T09:00:49.425Z,88.70
2023-01-30T09:01:49.319Z,88.59
2023-01-30T09:02:49.433Z,88.70
2023-01-30T09:03:49.288Z,89.22
2023-01-30T09:04:49.276Z,88.59
2023-01-30T09:05:49.263Z,89.01
2023-01-30T09:06:49.261Z,88.70
2023-01-30T09:07:49.239Z,88.39
2023-01-30T09:08:49.252Z,88.24
2023-01-30T09:09:49.235Z,88.35
2023-01-30T09:10:49.200Z,88.04
2023-01-30T09:11:49.208Z,87.32
2023-01-30T09:12:49.180Z,86.90
2023-01-30T09:13:49.906Z,86.80
2023-01-30T09:14:49.161Z,86.49
2023-01-30T09:15:55.721Z,86.80
2023-01-30T09:16:57.216Z,86.49
2023-01-30T09:17:49.130Z,87.01
2023-01-30T09:18:49.122Z,86.49
2023-01-30T09:19:49.112Z,86.80
2023-01-30T09:20:49.118Z,86.60
2023-01-30T09:21:49.115Z,86.80
2023-01-30T09:22:49.070Z,87.11
2023-01-30T09:23:49.148Z,86.60
2023-01-30T09:24:49.050Z,86.39
2023-01-30T09:25:49.044Z,86.70
2023-01-30T09:26:49.083Z,86.70
2023-01-30T09:27:49.032Z,86.60
2023-01-30T09:28:49.008Z,86.18
2023-01-30T09:29:49.006Z,85.77
2023-01-30T09:30:49.110Z,85.73
2023-01-30T09:31:49.027Z,86.29
2023-01-30T09:32:48.967Z,86.18
2023-01-30T09:33:48.964Z,86.29
2023-01-30T09:34:48.941Z,85.87
2023-01-30T09:35:48.932Z,86.39
2023-01-30T09:36:48.945Z,86.39
2023-01-30T09:37:48.913Z,86.18
2023-01-30T09:38:48.927Z,85.87
2023-01-30T09:39:55.436Z,85.87
2023-01-30T09:40:48.876Z,86.29
2023-01-30T09:41:48.877Z,86.29
2023-01-30T09:42:48.875Z,86.18
2023-01-30T09:43:48.911Z,85.67
2023-01-30T09:44:48.829Z,85.25
2023-01-30T09:45:48.869Z,85.63
2023-01-30T09:46:48.925Z,85.22
2023-01-30T09:47:48.859Z,84.91
2023-01-30T09:48:48.789Z,85.11
2023-01-30T09:49:48.781Z,85.52
2023-01-30T09:50:48.922Z,84.80
2023-01-30T09:51:48.766Z,84.80
2023-01-30T09:52:48.774Z,85.42
2023-01-30T09:53:48.731Z,84.59
2023-01-30T09:54:48.765Z,84.80
2023-01-30T09:55:48.709Z,84.91
2023-01-30T09:56:48.704Z,84.45
2023-01-30T09:57:48.738Z,83.94
2023-01-30T09:58:48.711Z,84.05
2023-01-30T09:59:48.675Z,83.73
2023-01-30T10:00:48.652Z,84.08
2023-01-30T10:01:48.661Z,83.56
2023-01-30T10:02:48.635Z,84.25
2023-01-30T10:03:48.630Z,83.22
2023-01-30T10:05:00.457Z,83.32
2023-01-30T10:05:48.618Z,83.73
2023-01-30T10:06:48.597Z,83.63
2023-01-30T10:07:48.624Z,83.63
2023-01-30T10:08:48.564Z,83.22
2023-01-30T10:09:48.559Z,82.81
2023-01-30T10:10:55.044Z,83.12
2023-01-30T10:11:48.557Z,83.12
2023-01-30T10:12:48.521Z,83.01
2023-01-30T10:13:48.541Z,83.01
2023-01-30T10:14:48.505Z,82.84
2023-01-30T10:15:48.637Z,83.84
2023-01-30T10:16:48.488Z,83.15
2023-01-30T10:17:48.465Z,83.67
2023-01-30T10:18:48.477Z,83.87
2023-01-30T10:19:48.446Z,83.67
2023-01-30T10:20:48.451Z,84.29
2023-01-30T10:21:48.464Z,84.49
2023-01-30T10:22:48.476Z,84.77
2023-01-30T10:23:48.411Z,83.87
2023-01-30T10:24:48.385Z,83.05
2023-01-30T10:25:48.417Z,83.67
2023-01-30T10:26:48.419Z,83.53
2023-01-30T10:27:48.369Z,83.47
2023-01-30T10:28:55.502Z,83.67
2023-01-30T10:29:48.365Z,83.56
2023-01-30T10:30:48.420Z,83.22
2023-01-30T10:31:48.361Z,83.42
2023-01-30T10:32:48.297Z,83.32
2023-01-30T10:33:48.424Z,83.22
2023-01-30T10:34:48.343Z,83.53
2023-01-30T10:35:48.319Z,83.01
2023-01-30T10:36:48.271Z,83.01
2023-01-30T10:37:48.245Z,82.91
2023-01-30T10:38:48.242Z,83.84
2023-01-30T10:39:54.853Z,83.01
2023-01-30T10:40:48.249Z,83.32
2023-01-30T10:41:48.209Z,82.81
2023-01-30T10:42:48.204Z,83.12
2023-01-30T10:43:48.180Z,83.63
2023-01-30T10:44:48.170Z,83.42
2023-01-30T10:45:48.200Z,83.87
2023-01-30T10:46:48.686Z,84.49
2023-01-30T10:47:48.310Z,85.31
2023-01-30T10:48:48.124Z,86.04
2023-01-30T10:49:48.115Z,86.35
2023-01-30T10:50:48.105Z,86.18
2023-01-30T10:51:48.098Z,86.08
2023-01-30T10:52:48.088Z,87.21
2023-01-30T10:53:48.069Z,87.46
2023-01-30T10:54:48.059Z,87.77
2023-01-30T10:55:48.067Z,87.98
2023-01-30T10:56:48.053Z,87.66
2023-01-30T10:57:48.039Z,87.98
2023-01-30T10:58:48.149Z,87.98
2023-01-30T10:59:48.174Z,88.18
2023-01-30T11:00:48.104Z,88.18
2023-01-30T11:01:48.021Z,88.49
2023-01-30T11:02:50.747Z,87.83
2023-01-30T11:03:47.966Z,87.73
2023-01-30T11:04:47.946Z,87.42
2023-01-30T11:05:47.941Z,87.42
2023-01-30T11:06:47.921Z,87.42
2023-01-30T11:07:47.927Z,86.90
2023-01-30T11:08:47.899Z,86.60
2023-01-30T11:09:47.913Z,86.80
2023-01-30T11:10:47.878Z,86.49
2023-01-30T11:11:47.872Z,86.60
2023-01-30T11:12:47.944Z,86.18
2023-01-30T11:13:47.848Z,85.52
2023-01-30T11:14:47.879Z,86.15
2023-01-30T11:15:47.898Z,86.04
2023-01-30T11:16:47.834Z,85.01
2023-01-30T11:17:47.874Z,85.42
2023-01-30T11:19:47.788Z,85.31
2023-01-30T11:20:48.144Z,85.31
2023-01-30T11:21:47.775Z,84.49
2023-01-30T11:22:47.764Z,85.22
2023-01-30T11:23:47.741Z,85.42
2023-01-30T11:24:47.732Z,84.70
2023-01-30T11:25:47.720Z,84.19
2023-01-30T11:26:48.676Z,84.59
2023-01-30T11:27:47.707Z,84.19
2023-01-30T11:28:49.022Z,84.25
2023-01-30T11:29:47.833Z,83.84
2023-01-30T11:30:47.867Z,84.14
2023-01-30T11:31:47.817Z,83.32
2023-01-30T11:32:47.928Z,83.12
2023-01-30T11:33:47.638Z,83.12
2023-01-30T11:34:47.616Z,83.22
2023-01-30T11:35:47.623Z,82.91
2023-01-30T11:36:47.597Z,82.25
2023-01-30T11:37:47.599Z,82.46
2023-01-30T11:38:47.573Z,82.05
2023-01-30T11:39:47.563Z,82.15
2023-01-30T11:40:47.549Z,81.12
2023-01-30T11:41:47.540Z,81.23
2023-01-30T11:42:47.564Z,81.12
2023-01-30T11:43:47.533Z,81.12
2023-01-30T11:44:47.944Z,80.71
2023-01-30T11:45:47.650Z,80.30
2023-01-30T11:46:47.589Z,79.88
2023-01-30T11:47:54.255Z,79.88
2023-01-30T11:49:04.378Z,79.79
2023-01-30T11:51:31.975Z,79.58
2023-01-30T11:51:36.675Z,79.37
2023-01-30T11:51:47.550Z,79.88
2023-01-30T11:52:47.507Z,79.47
2023-01-30T11:53:47.442Z,79.68
2023-01-30T11:54:47.577Z,79.68
2023-01-30T11:56:02.264Z,79.58
2023-01-30T11:56:47.440Z,79.16
2023-01-30T11:57:47.476Z,79.37
2023-01-30T11:58:47.508Z,80.05
2023-01-30T11:59:47.350Z,79.47
2023-01-30T12:00:47.343Z,79.27
2023-01-30T12:01:47.434Z,79.37
2023-01-30T12:02:47.340Z,79.58
2023-01-30T12:03:47.316Z,79.16
2023-01-30T12:04:47.305Z,78.75
2023-01-30T12:05:47.289Z,78.10
2023-01-30T12:06:47.269Z,77.89
2023-01-30T12:07:47.275Z,77.89
2023-01-30T12:08:47.270Z,78.00
2023-01-30T12:09:47.236Z,78.51
2023-01-30T12:10:47.217Z,77.48
2023-01-30T12:11:47.249Z,77.48
2023-01-30T12:12:47.203Z,77.48
2023-01-30T12:13:47.209Z,78.00
2023-01-30T12:14:47.177Z,77.07
2023-01-30T12:15:47.180Z,77.69
2023-01-30T12:16:47.215Z,76.35
2023-01-30T12:17:47.180Z,77.07
2023-01-30T12:18:47.148Z,76.86
2023-01-30T12:19:47.132Z,76.73
2023-01-30T12:20:47.124Z,76.83
2023-01-30T12:21:47.110Z,76.31
2023-01-30T12:22:47.095Z,77.34
2023-01-30T12:23:47.097Z,76.86
2023-01-30T12:24:47.076Z,76.56
2023-01-30T12:25:47.065Z,76.45
2023-01-30T12:26:47.192Z,76.86
2023-01-30T12:27:47.097Z,77.17
2023-01-30T12:28:47.041Z,77.17
2023-01-30T12:29:47.018Z,76.66
2023-01-30T12:30:47.004Z,77.28
2023-01-30T12:31:46.995Z,77.38
2023-01-30T12:32:46.998Z,77.17
2023-01-30T12:33:47.023Z,76.31
2023-01-30T12:34:47.003Z,76.66
2023-01-30T12:35:46.984Z,77.17
2023-01-30T12:36:46.938Z,77.38
2023-01-30T12:37:46.938Z,77.48
2023-01-30T12:38:46.958Z,78.82
2023-01-30T12:39:46.916Z,78.30
2023-01-30T12:40:47.286Z,78.41
2023-01-30T12:41:46.886Z,77.38
2023-01-30T12:42:46.882Z,77.58
2023-01-30T12:43:46.873Z,77.79
2023-01-30T12:44:46.952Z,77.38
2023-01-30T12:45:46.846Z,77.07
2023-01-30T12:46:46.838Z,77.58
2023-01-30T12:47:46.829Z,77.28
2023-01-30T12:48:48.834Z,77.69
2023-01-30T12:49:46.820Z,77.89
2023-01-30T12:50:46.827Z,78.10
2023-01-30T12:51:46.772Z,77.65
2023-01-30T12:52:46.771Z,77.75
2023-01-30T12:53:46.764Z,77.86
2023-01-30T12:54:46.748Z,78.37
2023-01-30T12:55:46.729Z,78.27
2023-01-30T12:56:48.252Z,77.31